sensor_id;sensor_type;location;lat;lon;timestamp;P1;durP1;ratioP1;P2;durP2;ratioP2
82760;SDS011;72498;42.022;21.444;2023-12-28T00:05:30;99.65;;;51.17;;
82760;SDS011;72498;42.022;21.444;2023-12-28T00:08:01;99.30;;;51.78;;
82760;SDS011;72498;42.022;21.444;2023-12-28T00:10:28;104.53;;;52.50;;
82760;SDS011;72498;42.022;21.444;2023-12-28T00:12:56;90.07;;;48.63;;
82760;SDS011;72498;42.022;21.444;2023-12-28T00:18:09;103.10;;;46.33;;
82760;SDS011;72498;42.022;21.444;2023-12-28T00:20:37;93.65;;;46.65;;
82760;SDS011;72498;42.022;21.444;2023-12-28T00:30:54;93.22;;;43.20;;
82760;SDS011;72498;42.022;21.444;2023-12-28T00:35:50;93.38;;;44.30;;
82760;SDS011;72498;42.022;21.444;2023-12-28T00:38:17;80.97;;;42.08;;
82760;SDS011;72498;42.022;21.444;2023-12-28T00:40:43;92.78;;;45.72;;
82760;SDS011;72498;42.022;21.444;2023-12-28T00:43:09;88.90;;;45.38;;
82760;SDS011;72498;42.022;21.444;2023-12-28T00:45:36;91.80;;;47.05;;
82760;SDS011;72498;42.022;21.444;2023-12-28T00:48:07;107.10;;;48.70;;
82760;SDS011;72498;42.022;21.444;2023-12-28T00:50:33;113.13;;;49.97;;
82760;SDS011;72498;42.022;21.444;2023-12-28T00:52:59;108.50;;;47.25;;
82760;SDS011;72498;42.022;21.444;2023-12-28T00:55:26;106.85;;;48.55;;
82760;SDS011;72498;42.022;21.444;2023-12-28T00:57:53;104.22;;;49.30;;
82760;SDS011;72498;42.022;21.444;2023-12-28T01:00:22;116.43;;;52.20;;
82760;SDS011;72498;42.022;21.444;2023-12-28T01:02:48;106.05;;;51.38;;
82760;SDS011;72498;42.022;21.444;2023-12-28T01:05:15;112.82;;;52.58;;
82760;SDS011;72498;42.022;21.444;2023-12-28T01:07:42;107.63;;;51.92;;
82760;SDS011;72498;42.022;21.444;2023-12-28T10:28:40;89.93;;;41.20;;
82760;SDS011;72498;42.022;21.444;2023-12-28T10:31:14;78.68;;;37.63;;
82760;SDS011;72498;42.022;21.444;2023-12-28T12:01:40;78.38;;;48.53;;
82760;SDS011;72498;42.022;21.444;2023-12-28T12:06:34;92.32;;;51.28;;
82760;SDS011;72498;42.022;21.444;2023-12-28T12:11:51;85.57;;;51.55;;
82760;SDS011;72498;42.022;21.444;2023-12-28T12:14:37;83.55;;;52.88;;
82760;SDS011;72498;42.022;21.444;2023-12-28T12:17:09;95.47;;;52.90;;
82760;SDS011;72498;42.022;21.444;2023-12-28T12:19:43;91.07;;;50.00;;
82760;SDS011;72498;42.022;21.444;2023-12-28T12:22:32;83.95;;;52.55;;
82760;SDS011;72498;42.022;21.444;2023-12-28T12:25:15;89.95;;;51.22;;
82760;SDS011;72498;42.022;21.444;2023-12-28T12:31:13;67.80;;;42.80;;
82760;SDS011;72498;42.022;21.444;2023-12-28T12:33:41;71.22;;;41.50;;
82760;SDS011;72498;42.022;21.444;2023-12-28T12:36:22;69.88;;;44.42;;
82760;SDS011;72498;42.022;21.444;2023-12-28T12:39:09;73.18;;;45.28;;
82760;SDS011;72498;42.022;21.444;2023-12-28T12:41:36;86.65;;;48.83;;
82760;SDS011;72498;42.022;21.444;2023-12-28T12:44:05;76.20;;;53.00;;
82760;SDS011;72498;42.022;21.444;2023-12-28T12:46:57;77.80;;;52.67;;
82760;SDS011;72498;42.022;21.444;2023-12-28T12:49:43;82.60;;;52.83;;
82760;SDS011;72498;42.022;21.444;2023-12-28T12:52:09;83.95;;;47.97;;
82760;SDS011;72498;42.022;21.444;2023-12-28T12:54:37;80.97;;;46.00;;
82760;SDS011;72498;42.022;21.444;2023-12-28T12:57:03;83.20;;;45.70;;
82760;SDS011;72498;42.022;21.444;2023-12-28T12:59:31;85.70;;;48.13;;
82760;SDS011;72498;42.022;21.444;2023-12-28T13:02:00;81.03;;;47.83;;
82760;SDS011;72498;42.022;21.444;2023-12-28T13:04:26;87.68;;;48.42;;
82760;SDS011;72498;42.022;21.444;2023-12-28T13:06:53;86.68;;;46.25;;
82760;SDS011;72498;42.022;21.444;2023-12-28T13:09:22;81.15;;;47.20;;
82760;SDS011;72498;42.022;21.444;2023-12-28T13:11:49;71.85;;;47.10;;
82760;SDS011;72498;42.022;21.444;2023-12-28T13:14:16;80.55;;;46.63;;
82760;SDS011;72498;42.022;21.444;2023-12-28T13:16:51;72.55;;;44.20;;
82760;SDS011;72498;42.022;21.444;2023-12-28T13:22:22;79.50;;;40.40;;
82760;SDS011;72498;42.022;21.444;2023-12-28T13:24:52;77.10;;;45.33;;
82760;SDS011;72498;42.022;21.444;2023-12-28T13:27:18;74.60;;;42.40;;
82760;SDS011;72498;42.022;21.444;2023-12-28T14:01:30;74.35;;;38.35;;
82760;SDS011;72498;42.022;21.444;2023-12-28T14:03:58;85.22;;;40.10;;
82760;SDS011;72498;42.022;21.444;2023-12-28T14:06:26;88.60;;;39.42;;
82760;SDS011;72498;42.022;21.444;2023-12-28T14:08:52;84.78;;;41.22;;
82760;SDS011;72498;42.022;21.444;2023-12-28T14:11:22;84.28;;;40.10;;
82760;SDS011;72498;42.022;21.444;2023-12-28T14:13:48;81.65;;;39.17;;
82760;SDS011;72498;42.022;21.444;2023-12-28T14:16:15;85.75;;;41.00;;
82760;SDS011;72498;42.022;21.444;2023-12-28T14:18:59;86.90;;;41.70;;
82760;SDS011;72498;42.022;21.444;2023-12-28T14:21:35;71.07;;;36.22;;
82760;SDS011;72498;42.022;21.444;2023-12-28T14:24:02;73.43;;;36.40;;
82760;SDS011;72498;42.022;21.444;2023-12-28T14:26:31;79.32;;;36.10;;
82760;SDS011;72498;42.022;21.444;2023-12-28T14:31:35;86.57;;;42.35;;
82760;SDS011;72498;42.022;21.444;2023-12-28T14:34:02;98.40;;;40.70;;
82760;SDS011;72498;42.022;21.444;2023-12-28T14:36:37;85.43;;;41.60;;
82760;SDS011;72498;42.022;21.444;2023-12-28T14:39:06;81.38;;;39.03;;
82760;SDS011;72498;42.022;21.444;2023-12-28T14:41:41;87.53;;;42.17;;
82760;SDS011;72498;42.022;21.444;2023-12-28T14:44:08;101.22;;;42.95;;
82760;SDS011;72498;42.022;21.444;2023-12-28T14:46:44;93.88;;;42.20;;
82760;SDS011;72498;42.022;21.444;2023-12-28T14:51:46;94.70;;;41.03;;
82760;SDS011;72498;42.022;21.444;2023-12-28T14:54:13;106.65;;;42.88;;
82760;SDS011;72498;42.022;21.444;2023-12-28T14:56:39;103.38;;;43.42;;
82760;SDS011;72498;42.022;21.444;2023-12-28T14:59:12;85.68;;;38.40;;
82760;SDS011;72498;42.022;21.444;2023-12-28T15:01:42;92.63;;;39.35;;
82760;SDS011;72498;42.022;21.444;2023-12-28T15:04:08;88.57;;;38.33;;
82760;SDS011;72498;42.022;21.444;2023-12-28T15:06:35;91.25;;;39.80;;
82760;SDS011;72498;42.022;21.444;2023-12-28T15:09:01;100.85;;;40.80;;
82760;SDS011;72498;42.022;21.444;2023-12-28T15:11:36;96.03;;;40.55;;
82760;SDS011;72498;42.022;21.444;2023-12-28T15:14:23;91.07;;;40.42;;
82760;SDS011;72498;42.022;21.444;2023-12-28T15:16:52;86.80;;;37.75;;
82760;SDS011;72498;42.022;21.444;2023-12-28T15:19:21;84.32;;;36.55;;
82760;SDS011;72498;42.022;21.444;2023-12-28T15:21:53;76.88;;;35.92;;
82760;SDS011;72498;42.022;21.444;2023-12-28T15:24:20;74.68;;;33.85;;
82760;SDS011;72498;42.022;21.444;2023-12-28T15:26:53;127.20;;;46.92;;
82760;SDS011;72498;42.022;21.444;2023-12-28T15:29:23;102.72;;;44.53;;
82760;SDS011;72498;42.022;21.444;2023-12-28T15:32:10;118.68;;;43.75;;
82760;SDS011;72498;42.022;21.444;2023-12-28T15:34:45;131.30;;;44.47;;
82760;SDS011;72498;42.022;21.444;2023-12-28T15:37:11;64.93;;;35.92;;
82760;SDS011;72498;42.022;21.444;2023-12-28T15:39:52;111.53;;;45.92;;
82760;SDS011;72498;42.022;21.444;2023-12-28T15:42:21;115.68;;;44.25;;
82760;SDS011;72498;42.022;21.444;2023-12-28T15:44:48;109.85;;;44.97;;
82760;SDS011;72498;42.022;21.444;2023-12-28T15:47:14;99.55;;;44.35;;
82760;SDS011;72498;42.022;21.444;2023-12-28T15:49:44;111.68;;;44.63;;
82760;SDS011;72498;42.022;21.444;2023-12-28T15:52:11;113.43;;;46.30;;
82760;SDS011;72498;42.022;21.444;2023-12-28T15:54:40;100.85;;;44.58;;
82760;SDS011;72498;42.022;21.444;2023-12-28T15:57:06;97.32;;;44.78;;
82760;SDS011;72498;42.022;21.444;2023-12-28T15:59:36;97.68;;;46.08;;
82760;SDS011;72498;42.022;21.444;2023-12-28T16:23:08;103.47;;;50.33;;
82760;SDS011;72498;42.022;21.444;2023-12-28T16:25:36;103.53;;;48.85;;
82760;SDS011;72498;42.022;21.444;2023-12-28T16:28:05;108.07;;;51.05;;
82760;SDS011;72498;42.022;21.444;2023-12-28T16:30:52;110.93;;;51.08;;
82760;SDS011;72498;42.022;21.444;2023-12-28T16:33:41;98.63;;;49.75;;
82760;SDS011;72498;42.022;21.444;2023-12-28T16:36:09;107.25;;;53.15;;
82760;SDS011;72498;42.022;21.444;2023-12-28T16:38:35;96.45;;;48.90;;
82760;SDS011;72498;42.022;21.444;2023-12-28T16:41:04;103.60;;;52.22;;
82760;SDS011;72498;42.022;21.444;2023-12-28T16:43:45;142.38;;;64.72;;
82760;SDS011;72498;42.022;21.444;2023-12-28T16:46:14;143.82;;;66.95;;
82760;SDS011;72498;42.022;21.444;2023-12-28T17:02:34;130.93;;;69.43;;
82760;SDS011;72498;42.022;21.444;2023-12-28T17:05:03;141.68;;;73.28;;
82760;SDS011;72498;42.022;21.444;2023-12-28T17:13:08;146.82;;;71.78;;
82760;SDS011;72498;42.022;21.444;2023-12-28T17:15:38;128.18;;;62.92;;
82760;SDS011;72498;42.022;21.444;2023-12-28T17:18:24;134.07;;;63.83;;
82760;SDS011;72498;42.022;21.444;2023-12-28T17:20:52;123.07;;;60.80;;
82760;SDS011;72498;42.022;21.444;2023-12-28T17:33:42;153.80;;;70.45;;
82760;SDS011;72498;42.022;21.444;2023-12-28T17:36:14;134.95;;;70.03;;
82760;SDS011;72498;42.022;21.444;2023-12-28T17:38:40;156.50;;;75.38;;
82760;SDS011;72498;42.022;21.444;2023-12-28T17:41:12;145.82;;;74.88;;
82760;SDS011;72498;42.022;21.444;2023-12-28T17:43:51;138.68;;;71.38;;
82760;SDS011;72498;42.022;21.444;2023-12-28T17:46:33;138.77;;;70.50;;
82760;SDS011;72498;42.022;21.444;2023-12-28T17:49:03;103.03;;;50.90;;
82760;SDS011;72498;42.022;21.444;2023-12-28T17:51:33;104.18;;;52.17;;
82760;SDS011;72498;42.022;21.444;2023-12-28T18:01:47;90.63;;;47.95;;
82760;SDS011;72498;42.022;21.444;2023-12-28T18:04:16;112.47;;;54.13;;
82760;SDS011;72498;42.022;21.444;2023-12-28T18:06:43;108.22;;;53.78;;
82760;SDS011;72498;42.022;21.444;2023-12-28T18:14:23;96.03;;;45.05;;
82760;SDS011;72498;42.022;21.444;2023-12-28T18:16:55;89.90;;;42.72;;
82760;SDS011;72498;42.022;21.444;2023-12-28T18:21:58;125.85;;;58.20;;
82760;SDS011;72498;42.022;21.444;2023-12-28T18:24:30;136.40;;;70.97;;
82760;SDS011;72498;42.022;21.444;2023-12-28T18:32:05;198.02;;;97.10;;
82760;SDS011;72498;42.022;21.444;2023-12-28T18:34:46;217.20;;;104.38;;
82760;SDS011;72498;42.022;21.444;2023-12-28T18:37:12;186.20;;;97.32;;
82760;SDS011;72498;42.022;21.444;2023-12-28T18:39:43;214.38;;;108.35;;
82760;SDS011;72498;42.022;21.444;2023-12-28T18:42:10;215.65;;;109.15;;
82760;SDS011;72498;42.022;21.444;2023-12-28T18:44:37;218.07;;;114.13;;
82760;SDS011;72498;42.022;21.444;2023-12-28T18:47:03;218.73;;;115.22;;
82760;SDS011;72498;42.022;21.444;2023-12-28T18:49:33;232.85;;;122.20;;
82760;SDS011;72498;42.022;21.444;2023-12-28T18:52:10;230.82;;;116.82;;
82760;SDS011;72498;42.022;21.444;2023-12-28T18:59:55;220.75;;;115.18;;
82760;SDS011;72498;42.022;21.444;2023-12-28T19:02:24;220.95;;;113.40;;
82760;SDS011;72498;42.022;21.444;2023-12-28T19:07:41;212.95;;;111.97;;
82760;SDS011;72498;42.022;21.444;2023-12-28T19:10:08;196.07;;;96.22;;
82760;SDS011;72498;42.022;21.444;2023-12-28T19:12:41;225.60;;;109.15;;
82760;SDS011;72498;42.022;21.444;2023-12-28T19:15:16;206.95;;;103.88;;
82760;SDS011;72498;42.022;21.444;2023-12-28T19:17:45;209.98;;;108.53;;
82760;SDS011;72498;42.022;21.444;2023-12-28T19:20:22;198.43;;;104.22;;
82760;SDS011;72498;42.022;21.444;2023-12-28T19:22:53;197.52;;;101.05;;
82760;SDS011;72498;42.022;21.444;2023-12-28T19:40:56;222.90;;;111.35;;
82760;SDS011;72498;42.022;21.444;2023-12-28T19:43:25;238.50;;;118.35;;
82760;SDS011;72498;42.022;21.444;2023-12-28T19:45:53;228.43;;;112.32;;
82760;SDS011;72498;42.022;21.444;2023-12-28T19:48:24;208.75;;;104.97;;
82760;SDS011;72498;42.022;21.444;2023-12-28T19:51:04;193.27;;;100.80;;
82760;SDS011;72498;42.022;21.444;2023-12-28T19:53:31;191.32;;;97.75;;
82760;SDS011;72498;42.022;21.444;2023-12-28T19:55:59;215.20;;;104.40;;
82760;SDS011;72498;42.022;21.444;2023-12-28T19:58:42;218.10;;;99.78;;
82760;SDS011;72498;42.022;21.444;2023-12-28T20:01:08;214.68;;;96.15;;
82760;SDS011;72498;42.022;21.444;2023-12-28T20:39:05;176.60;;;91.07;;
82760;SDS011;72498;42.022;21.444;2023-12-28T20:44:31;193.23;;;91.80;;
82760;SDS011;72498;42.022;21.444;2023-12-28T20:47:00;170.70;;;90.63;;
82760;SDS011;72498;42.022;21.444;2023-12-28T20:49:33;175.95;;;93.07;;
82760;SDS011;72498;42.022;21.444;2023-12-28T20:51:59;180.25;;;90.65;;
82760;SDS011;72498;42.022;21.444;2023-12-28T20:54:50;163.70;;;84.72;;
82760;SDS011;72498;42.022;21.444;2023-12-28T20:57:50;173.30;;;85.68;;
82760;SDS011;72498;42.022;21.444;2023-12-28T22:21:43;167.48;;;84.50;;
82760;SDS011;72498;42.022;21.444;2023-12-28T22:24:13;169.05;;;84.82;;
82760;SDS011;72498;42.022;21.444;2023-12-28T22:26:39;175.43;;;84.82;;
82760;SDS011;72498;42.022;21.444;2023-12-28T22:31:35;157.85;;;78.20;;
82760;SDS011;72498;42.022;21.444;2023-12-28T22:34:07;158.27;;;75.90;;
82760;SDS011;72498;42.022;21.444;2023-12-28T22:36:45;158.57;;;77.97;;
82760;SDS011;72498;42.022;21.444;2023-12-28T22:39:12;146.48;;;76.30;;
82760;SDS011;72498;42.022;21.444;2023-12-28T22:41:39;160.52;;;79.45;;
82760;SDS011;72498;42.022;21.444;2023-12-28T22:44:07;142.60;;;74.32;;
82760;SDS011;72498;42.022;21.444;2023-12-28T22:46:34;148.80;;;72.97;;
82760;SDS011;72498;42.022;21.444;2023-12-28T22:49:00;146.57;;;70.90;;
82760;SDS011;72498;42.022;21.444;2023-12-28T22:51:26;164.30;;;76.88;;
82760;SDS011;72498;42.022;21.444;2023-12-28T22:54:15;156.75;;;73.35;;
82760;SDS011;72498;42.022;21.444;2023-12-28T22:56:46;136.18;;;70.25;;
82760;SDS011;72498;42.022;21.444;2023-12-28T22:59:21;148.63;;;71.63;;
82760;SDS011;72498;42.022;21.444;2023-12-28T23:04:35;151.20;;;70.32;;
82760;SDS011;72498;42.022;21.444;2023-12-28T23:07:01;140.52;;;68.97;;
82760;SDS011;72498;42.022;21.444;2023-12-28T23:09:29;150.88;;;78.45;;
82760;SDS011;72498;42.022;21.444;2023-12-28T23:12:00;148.63;;;75.07;;
82760;SDS011;72498;42.022;21.444;2023-12-28T23:14:26;158.65;;;76.50;;
82760;SDS011;72498;42.022;21.444;2023-12-28T23:16:52;158.05;;;73.90;;
82760;SDS011;72498;42.022;21.444;2023-12-28T23:19:25;150.15;;;74.25;;
82760;SDS011;72498;42.022;21.444;2023-12-28T23:21:54;158.00;;;75.13;;
82760;SDS011;72498;42.022;21.444;2023-12-28T23:24:23;146.95;;;70.90;;
82760;SDS011;72498;42.022;21.444;2023-12-28T23:26:52;171.48;;;81.90;;
82760;SDS011;72498;42.022;21.444;2023-12-28T23:29:18;173.18;;;81.45;;
82760;SDS011;72498;42.022;21.444;2023-12-28T23:31:45;175.75;;;85.97;;
82760;SDS011;72498;42.022;21.444;2023-12-28T23:34:13;175.13;;;84.15;;
82760;SDS011;72498;42.022;21.444;2023-12-28T23:36:39;178.48;;;90.20;;
82760;SDS011;72498;42.022;21.444;2023-12-28T23:39:05;174.75;;;81.05;;
82760;SDS011;72498;42.022;21.444;2023-12-28T23:41:40;169.38;;;80.30;;
82760;SDS011;72498;42.022;21.444;2023-12-28T23:44:06;167.45;;;81.07;;
82760;SDS011;72498;42.022;21.444;2023-12-28T23:46:35;162.10;;;79.50;;
82760;SDS011;72498;42.022;21.444;2023-12-28T23:49:23;167.77;;;81.05;;
82760;SDS011;72498;42.022;21.444;2023-12-28T23:51:50;162.32;;;80.28;;
82760;SDS011;72498;42.022;21.444;2023-12-28T23:54:17;174.90;;;86.32;;
82760;SDS011;72498;42.022;21.444;2023-12-28T23:56:44;184.98;;;85.05;;
82760;SDS011;72498;42.022;21.444;2023-12-28T23:59:10;156.45;;;76.78;;
